createdAt,value
2023-08-31T00:00:13.058Z,83.31
2023-08-31T00:01:15.239Z,83.51
2023-08-31T00:02:17.452Z,83.82
2023-08-31T00:03:20.701Z,83.98
2023-08-31T00:04:23.004Z,83.97
2023-08-31T00:05:26.192Z,83.62
2023-08-31T00:06:28.489Z,83.45
2023-08-31T00:07:30.706Z,83.39
2023-08-31T00:08:34.021Z,83.27
2023-08-31T00:09:36.223Z,83.35
2023-08-31T00:10:38.639Z,83.48
2023-08-31T00:11:41.316Z,83.50
2023-08-31T00:12:43.458Z,83.45
2023-08-31T00:13:45.627Z,83.54
2023-08-31T00:14:47.788Z,83.70
2023-08-31T00:15:50.039Z,83.36
2023-08-31T00:16:53.376Z,83.03
2023-08-31T00:17:56.028Z,82.88
2023-08-31T00:18:58.363Z,82.71
2023-08-31T00:20:00.760Z,82.54
2023-08-31T00:21:03.615Z,82.57
2023-08-31T00:22:05.771Z,83.03
2023-08-31T00:23:08.011Z,83.65
2023-08-31T00:24:11.293Z,84.30
2023-08-31T00:25:13.407Z,84.04
2023-08-31T00:26:15.989Z,83.04
2023-08-31T00:27:18.617Z,82.71
2023-08-31T00:28:21.164Z,83.07
2023-08-31T00:29:24.465Z,83.36
2023-08-31T00:30:30.714Z,83.71
2023-08-31T00:31:33.017Z,83.14
2023-08-31T00:32:35.828Z,83.69
2023-08-31T00:33:40.820Z,83.64
2023-08-31T00:34:43.475Z,83.69
2023-08-31T00:35:47.670Z,83.52
2023-08-31T00:36:50.005Z,83.10
2023-08-31T00:37:52.534Z,83.94
2023-08-31T00:38:55.144Z,83.89
2023-08-31T00:39:57.272Z,83.70
2023-08-31T00:40:59.409Z,82.15
2023-08-31T00:42:01.772Z,81.91
2023-08-31T00:43:04.223Z,82.33
2023-08-31T00:44:06.572Z,82.85
2023-08-31T00:45:09.422Z,83.37
2023-08-31T00:46:11.650Z,82.14
2023-08-31T00:47:16.914Z,81.59
2023-08-31T00:48:19.388Z,81.63
2023-08-31T00:49:21.564Z,81.64
2023-08-31T00:50:23.734Z,82.26
2023-08-31T00:51:26.244Z,81.42
2023-08-31T00:52:28.451Z,81.56
2023-08-31T00:53:31.357Z,81.71
2023-08-31T00:54:33.972Z,81.73
2023-08-31T00:55:36.115Z,81.58
2023-08-31T00:56:38.270Z,81.93
2023-08-31T00:57:42.160Z,82.22
2023-08-31T00:58:44.378Z,81.99
2023-08-31T00:59:46.879Z,82.85
2023-08-31T01:01:23.713Z,82.36
2023-08-31T01:02:49.475Z,83.20
2023-08-31T01:04:11.306Z,83.49
2023-08-31T01:05:23.372Z,83.06
2023-08-31T01:06:37.845Z,82.58
2023-08-31T01:08:10.141Z,81.48
2023-08-31T01:09:45.075Z,83.02
2023-08-31T01:11:00.680Z,82.40
2023-08-31T01:12:14.250Z,81.27
2023-08-31T01:13:20.206Z,82.36
2023-08-31T01:14:25.299Z,82.28
2023-08-31T01:15:27.787Z,82.94
2023-08-31T01:16:30.291Z,83.47
2023-08-31T01:17:33.161Z,82.51
2023-08-31T01:18:38.442Z,82.98
2023-08-31T01:19:51.461Z,81.62
2023-08-31T01:21:19.043Z,82.48
2023-08-31T01:22:32.359Z,81.53
2023-08-31T01:23:56.801Z,81.87
2023-08-31T01:25:00.026Z,82.42
2023-08-31T01:26:03.005Z,81.90
2023-08-31T01:27:05.649Z,82.41
2023-08-31T01:28:08.898Z,82.22
2023-08-31T01:29:11.050Z,82.74
2023-08-31T01:30:13.228Z,82.86
2023-08-31T01:31:18.366Z,83.10
2023-08-31T01:32:20.509Z,82.86
2023-08-31T01:33:22.703Z,83.78
2023-08-31T01:34:24.872Z,83.70
2023-08-31T01:35:27.373Z,81.62
2023-08-31T01:36:30.954Z,81.46
2023-08-31T01:37:53.061Z,81.57
2023-08-31T01:39:26.531Z,82.12
2023-08-31T01:40:46.767Z,81.09
2023-08-31T01:41:52.723Z,81.27
2023-08-31T01:42:56.329Z,81.16
2023-08-31T01:43:59.193Z,81.35
2023-08-31T01:45:01.967Z,81.72
2023-08-31T01:46:04.214Z,81.43
2023-08-31T01:47:07.631Z,80.36
2023-08-31T01:48:10.674Z,80.54
2023-08-31T01:49:12.998Z,80.21
2023-08-31T01:50:15.160Z,80.43
2023-08-31T01:51:18.446Z,80.48
2023-08-31T01:52:20.627Z,80.50
2023-08-31T01:53:23.826Z,80.69
2023-08-31T01:54:26.108Z,80.79
2023-08-31T01:55:28.240Z,80.88
2023-08-31T01:56:30.393Z,81.13
2023-08-31T01:57:33.550Z,81.39
2023-08-31T01:58:35.869Z,81.02
2023-08-31T01:59:38.047Z,81.41
2023-08-31T02:00:40.168Z,81.41
2023-08-31T02:01:42.417Z,79.96
2023-08-31T02:02:44.719Z,79.96
2023-08-31T02:03:47.045Z,79.85
2023-08-31T02:04:49.218Z,79.46
2023-08-31T02:05:51.361Z,79.97
2023-08-31T02:06:53.508Z,79.67
2023-08-31T02:07:55.652Z,79.91
2023-08-31T02:08:57.767Z,78.83
2023-08-31T02:09:59.944Z,78.37
2023-08-31T02:11:02.120Z,78.48
2023-08-31T02:12:04.611Z,78.40
2023-08-31T02:13:06.759Z,78.63
2023-08-31T02:14:08.870Z,78.59
2023-08-31T02:15:11.198Z,79.07
2023-08-31T02:16:13.389Z,78.45
2023-08-31T02:17:15.578Z,78.59
2023-08-31T02:18:17.708Z,78.97
2023-08-31T02:19:19.839Z,78.91
2023-08-31T02:20:22.151Z,78.95
2023-08-31T02:21:24.382Z,78.78
2023-08-31T02:22:26.699Z,78.43
2023-08-31T02:23:28.866Z,79.04
2023-08-31T02:24:31.200Z,78.65
2023-08-31T02:25:33.781Z,78.92
2023-08-31T02:26:38.795Z,79.05
2023-08-31T02:27:40.919Z,79.32
2023-08-31T02:28:43.140Z,78.71
2023-08-31T02:29:45.273Z,78.73
2023-08-31T02:30:47.530Z,78.85
2023-08-31T02:31:49.811Z,78.33
2023-08-31T02:32:52.103Z,78.71
2023-08-31T02:33:54.554Z,78.75
2023-08-31T02:34:56.668Z,78.90
2023-08-31T02:35:59.439Z,79.39
2023-08-31T02:37:01.615Z,79.16
2023-08-31T02:38:03.888Z,79.44
2023-08-31T02:39:06.075Z,79.25
2023-08-31T02:40:09.698Z,79.67
2023-08-31T02:41:11.896Z,79.27
2023-08-31T02:42:15.544Z,79.66
2023-08-31T02:43:17.748Z,79.60
2023-08-31T02:44:20.542Z,79.78
2023-08-31T02:45:22.742Z,79.59
2023-08-31T02:46:25.329Z,79.89
2023-08-31T02:47:27.558Z,79.60
2023-08-31T02:48:31.305Z,79.76
2023-08-31T02:49:33.556Z,79.91
2023-08-31T02:50:36.223Z,79.76
2023-08-31T02:51:38.354Z,79.60
2023-08-31T02:52:41.552Z,79.53
2023-08-31T02:53:43.686Z,79.86
2023-08-31T02:54:45.816Z,80.24
2023-08-31T02:55:47.947Z,80.28
2023-08-31T02:56:50.191Z,80.22
2023-08-31T02:57:52.344Z,80.21
2023-08-31T02:58:54.601Z,80.59
2023-08-31T02:59:56.792Z,80.39
2023-08-31T03:01:14.385Z,80.58
2023-08-31T03:02:16.762Z,80.30
2023-08-31T03:03:19.139Z,80.81
2023-08-31T03:04:21.313Z,80.79
2023-08-31T03:05:23.511Z,80.77
2023-08-31T03:06:26.986Z,80.56
2023-08-31T03:07:29.111Z,80.92
2023-08-31T03:08:31.276Z,81.05
2023-08-31T03:09:33.440Z,81.15
2023-08-31T03:10:36.862Z,80.82
2023-08-31T03:11:38.973Z,80.97
2023-08-31T03:12:41.106Z,80.78
2023-08-31T03:13:43.345Z,81.23
2023-08-31T03:14:45.534Z,80.68
2023-08-31T03:15:47.701Z,80.27
2023-08-31T03:16:50.187Z,80.51
2023-08-31T03:17:52.460Z,80.59
2023-08-31T03:18:54.713Z,80.76
2023-08-31T03:19:56.891Z,80.28
2023-08-31T03:20:59.142Z,80.41
2023-08-31T03:22:01.299Z,79.85
2023-08-31T03:23:03.864Z,80.10
2023-08-31T03:24:06.178Z,79.93
2023-08-31T03:25:09.024Z,80.12
2023-08-31T03:26:11.169Z,80.07
2023-08-31T03:27:13.375Z,80.00
2023-08-31T03:28:15.533Z,80.19
2023-08-31T03:29:17.654Z,80.47
2023-08-31T03:30:19.911Z,80.32
2023-08-31T03:31:22.033Z,80.49
2023-08-31T03:32:24.203Z,80.52
2023-08-31T03:33:26.401Z,80.37
2023-08-31T03:34:31.975Z,80.75
2023-08-31T03:35:34.236Z,80.25
2023-08-31T03:36:36.396Z,80.65
2023-08-31T03:37:38.802Z,80.67
2023-08-31T03:38:41.754Z,80.67
2023-08-31T03:39:44.184Z,80.78
2023-08-31T03:40:58.620Z,80.66
2023-08-31T03:42:00.763Z,80.78
2023-08-31T03:43:02.948Z,80.83
2023-08-31T03:44:05.305Z,80.80
2023-08-31T03:45:07.829Z,80.94
2023-08-31T03:46:10.063Z,81.06
2023-08-31T03:47:12.234Z,81.30
2023-08-31T03:48:14.428Z,81.61
2023-08-31T03:49:16.582Z,81.65
2023-08-31T03:50:18.745Z,82.09
2023-08-31T03:51:20.908Z,81.44
2023-08-31T03:52:24.240Z,81.88
2023-08-31T03:53:26.502Z,81.91
2023-08-31T03:54:28.624Z,82.21
2023-08-31T03:55:30.774Z,82.13
2023-08-31T03:56:32.954Z,82.22
2023-08-31T03:57:35.125Z,81.97
2023-08-31T03:58:37.289Z,82.00
2023-08-31T03:59:39.482Z,82.24
2023-08-31T04:00:41.653Z,82.07
2023-08-31T04:01:43.817Z,81.84
2023-08-31T04:02:46.243Z,81.82
2023-08-31T04:03:48.614Z,81.95
2023-08-31T04:04:50.809Z,81.88
2023-08-31T04:05:56.675Z,82.19
2023-08-31T04:06:59.818Z,82.32
2023-08-31T04:08:02.089Z,82.37
2023-08-31T04:09:04.522Z,82.57
2023-08-31T04:10:07.090Z,82.42
2023-08-31T04:11:09.370Z,82.76
2023-08-31T04:12:11.493Z,82.81
2023-08-31T04:13:13.862Z,82.74
2023-08-31T04:14:16.188Z,83.06
2023-08-31T04:15:18.707Z,83.16
2023-08-31T04:16:20.960Z,83.13
2023-08-31T04:17:23.125Z,83.34
2023-08-31T04:18:25.473Z,83.39
2023-08-31T04:19:27.647Z,83.52
2023-08-31T04:20:29.890Z,83.39
2023-08-31T04:21:32.074Z,83.43
2023-08-31T04:22:34.190Z,83.30
2023-08-31T04:23:36.348Z,83.49
2023-08-31T04:24:38.492Z,84.50
2023-08-31T04:25:40.624Z,84.26
2023-08-31T04:26:44.203Z,84.37
2023-08-31T04:27:46.551Z,82.73
2023-08-31T04:28:48.987Z,82.75
2023-08-31T04:29:51.151Z,82.98
2023-08-31T04:30:53.518Z,82.78
2023-08-31T04:31:56.299Z,82.92
2023-08-31T04:32:58.448Z,83.29
2023-08-31T04:34:00.825Z,83.47
2023-08-31T04:35:06.830Z,83.40
2023-08-31T04:36:09.010Z,83.17
2023-08-31T04:37:11.207Z,83.56
2023-08-31T04:38:13.397Z,83.42
2023-08-31T04:39:15.618Z,83.30
2023-08-31T04:40:17.777Z,84.46
2023-08-31T04:41:20.165Z,82.90
2023-08-31T04:42:22.698Z,82.24
2023-08-31T04:43:24.876Z,82.18
2023-08-31T04:44:27.053Z,82.17
2023-08-31T04:45:29.241Z,82.62
2023-08-31T04:46:31.431Z,83.40
2023-08-31T04:47:34.132Z,82.44
2023-08-31T04:48:37.295Z,82.01
2023-08-31T04:49:39.524Z,81.80
2023-08-31T04:50:41.654Z,81.75
2023-08-31T04:51:45.353Z,81.28
2023-08-31T04:52:47.581Z,81.37
2023-08-31T04:53:49.693Z,82.40
2023-08-31T04:54:52.034Z,81.07
2023-08-31T04:55:54.276Z,81.00
2023-08-31T04:56:56.433Z,80.63
2023-08-31T04:57:58.864Z,80.80
2023-08-31T04:59:01.554Z,80.97
2023-08-31T05:00:04.653Z,81.23
2023-08-31T05:01:06.791Z,80.93
2023-08-31T05:02:08.951Z,80.39
2023-08-31T05:03:11.669Z,79.26
2023-08-31T05:04:14.102Z,79.29
2023-08-31T05:05:16.404Z,79.12
2023-08-31T05:06:18.533Z,79.28
2023-08-31T05:07:20.700Z,79.07
2023-08-31T05:08:22.865Z,79.43
2023-08-31T05:09:28.044Z,79.26
2023-08-31T05:10:30.262Z,79.47
2023-08-31T05:11:32.408Z,79.37
2023-08-31T05:12:34.587Z,79.65
2023-08-31T05:13:36.771Z,79.63
2023-08-31T05:14:40.881Z,78.88
2023-08-31T05:15:43.097Z,78.74
2023-08-31T05:16:45.961Z,78.84
2023-08-31T05:17:49.694Z,78.76
2023-08-31T05:18:51.943Z,78.80
2023-08-31T05:19:54.237Z,78.54
2023-08-31T05:20:56.367Z,77.99
2023-08-31T05:21:58.669Z,78.41
2023-08-31T05:23:00.832Z,78.10
2023-08-31T05:24:02.963Z,77.19
2023-08-31T05:25:05.678Z,77.14
2023-08-31T05:26:07.886Z,77.12
2023-08-31T05:27:10.023Z,76.17
2023-08-31T05:28:12.172Z,76.43
2023-08-31T05:29:14.323Z,77.04
2023-08-31T05:30:16.502Z,74.63
2023-08-31T05:31:18.664Z,75.29
2023-08-31T05:32:20.836Z,74.62
2023-08-31T05:33:23.544Z,74.15
2023-08-31T05:34:26.412Z,73.69
2023-08-31T05:35:28.564Z,73.93
2023-08-31T05:36:30.923Z,73.75
2023-08-31T05:37:34.444Z,73.79
2023-08-31T05:38:36.583Z,73.66
2023-08-31T05:39:38.742Z,73.23
2023-08-31T05:40:42.893Z,73.08
2023-08-31T05:41:45.101Z,73.01
2023-08-31T05:42:47.307Z,72.99
2023-08-31T05:43:49.458Z,72.92
2023-08-31T05:44:51.601Z,72.46
2023-08-31T05:45:53.790Z,72.18
2023-08-31T05:46:55.978Z,72.44
2023-08-31T05:47:58.208Z,72.63
2023-08-31T05:49:00.430Z,72.75
2023-08-31T05:50:03.067Z,73.00
2023-08-31T05:51:05.371Z,73.16
2023-08-31T05:52:07.601Z,73.69
2023-08-31T05:53:10.492Z,73.67
2023-08-31T05:54:14.324Z,73.55
2023-08-31T05:55:16.484Z,73.64
2023-08-31T05:56:20.745Z,73.74
2023-08-31T05:57:23.406Z,74.02
2023-08-31T05:58:25.558Z,74.02
2023-08-31T05:59:27.698Z,74.49
2023-08-31T06:00:29.938Z,74.42
2023-08-31T06:01:32.178Z,74.25
2023-08-31T06:02:34.346Z,74.32
2023-08-31T06:03:36.560Z,74.08
2023-08-31T06:04:38.893Z,74.41
2023-08-31T06:05:41.070Z,74.66
2023-08-31T06:06:43.206Z,74.25
2023-08-31T06:07:45.359Z,74.45
2023-08-31T06:08:47.525Z,75.02
2023-08-31T06:09:49.702Z,74.73
2023-08-31T06:10:52.230Z,74.90
2023-08-31T06:11:54.385Z,74.43
2023-08-31T06:12:56.540Z,73.62
2023-08-31T06:13:58.758Z,73.56
2023-08-31T06:15:01.356Z,73.33
2023-08-31T06:16:03.682Z,72.78
2023-08-31T06:17:05.794Z,72.06
2023-08-31T06:18:08.084Z,71.79
2023-08-31T06:19:10.247Z,70.97
2023-08-31T06:20:12.601Z,70.45
2023-08-31T06:21:14.808Z,69.75
2023-08-31T06:22:16.956Z,69.53
2023-08-31T06:23:19.177Z,68.64
2023-08-31T06:24:21.337Z,68.72
2023-08-31T06:25:25.635Z,68.66
2023-08-31T06:26:27.963Z,68.16
2023-08-31T06:27:30.161Z,68.11
2023-08-31T06:28:32.405Z,67.90
2023-08-31T06:29:34.516Z,67.65
2023-08-31T06:30:36.780Z,67.75
2023-08-31T06:31:38.971Z,67.96
2023-08-31T06:32:41.219Z,68.30
2023-08-31T06:33:43.439Z,68.17
2023-08-31T06:34:46.450Z,68.24
2023-08-31T06:35:53.062Z,67.68
2023-08-31T06:36:55.463Z,67.11
2023-08-31T06:37:58.767Z,66.47
2023-08-31T06:39:00.956Z,66.74
2023-08-31T06:40:03.148Z,66.50
2023-08-31T06:41:05.312Z,65.85
2023-08-31T06:42:07.552Z,65.39
2023-08-31T06:43:09.674Z,65.50
2023-08-31T06:44:11.860Z,65.41
2023-08-31T06:45:14.085Z,65.42
2023-08-31T06:46:23.842Z,65.80
2023-08-31T06:47:27.207Z,65.45
2023-08-31T06:48:29.868Z,65.51
2023-08-31T06:49:34.174Z,65.31
2023-08-31T06:50:36.975Z,65.40
2023-08-31T06:51:39.120Z,65.84
2023-08-31T06:52:42.410Z,66.30
2023-08-31T06:53:45.189Z,66.63
2023-08-31T06:54:47.352Z,66.75
2023-08-31T06:55:49.527Z,66.31
2023-08-31T06:56:51.684Z,66.59
2023-08-31T06:57:54.854Z,66.33
2023-08-31T06:58:58.032Z,66.20
2023-08-31T07:00:00.182Z,66.32
2023-08-31T07:01:06.725Z,65.99
2023-08-31T07:02:08.909Z,65.64
2023-08-31T07:03:11.951Z,65.41
2023-08-31T07:04:14.363Z,65.86
2023-08-31T07:05:16.708Z,66.11
2023-08-31T07:06:18.861Z,65.63
2023-08-31T07:07:21.057Z,65.80
2023-08-31T07:08:23.232Z,65.97
2023-08-31T07:09:25.388Z,66.02
2023-08-31T07:10:27.615Z,65.84
2023-08-31T07:11:29.725Z,65.91
2023-08-31T07:12:31.904Z,66.58
2023-08-31T07:13:34.075Z,66.17
2023-08-31T07:14:36.304Z,66.06
2023-08-31T07:15:38.521Z,65.97
2023-08-31T07:16:40.682Z,65.65
2023-08-31T07:17:42.878Z,65.70
2023-08-31T07:18:45.077Z,65.19
2023-08-31T07:19:47.456Z,65.78
2023-08-31T07:20:49.822Z,64.95
2023-08-31T07:21:52.090Z,65.06
2023-08-31T07:22:54.373Z,65.38
2023-08-31T07:23:56.845Z,65.53
2023-08-31T07:24:59.034Z,64.75
2023-08-31T07:26:01.501Z,64.93
2023-08-31T07:27:04.558Z,64.94
2023-08-31T07:28:06.873Z,64.15
2023-08-31T07:29:08.990Z,64.44
2023-08-31T07:30:11.689Z,63.95
2023-08-31T07:31:14.109Z,63.84
2023-08-31T07:32:16.264Z,63.43
2023-08-31T07:34:26.613Z,63.46
2023-08-31T07:35:28.750Z,63.12
2023-08-31T07:36:30.928Z,62.35
2023-08-31T07:37:33.134Z,62.67
2023-08-31T07:38:35.654Z,61.90
2023-08-31T07:39:37.951Z,61.82
2023-08-31T07:40:40.080Z,61.80
2023-08-31T07:41:42.215Z,61.33
2023-08-31T07:42:44.385Z,60.45
2023-08-31T07:44:53.546Z,60.64
2023-08-31T07:45:55.673Z,60.96
2023-08-31T07:46:57.951Z,59.98
2023-08-31T07:48:00.174Z,60.12
2023-08-31T07:49:03.309Z,59.31
2023-08-31T07:50:06.031Z,59.33
2023-08-31T07:51:08.235Z,58.84
2023-08-31T07:52:10.379Z,59.39
2023-08-31T07:53:13.139Z,59.55
2023-08-31T07:54:22.481Z,59.08
2023-08-31T07:55:24.642Z,58.55
2023-08-31T07:56:26.784Z,58.54
2023-08-31T07:57:29.017Z,58.21
2023-08-31T07:58:31.187Z,57.11
2023-08-31T07:59:33.383Z,56.55
2023-08-31T08:00:35.653Z,57.34
2023-08-31T08:01:37.978Z,57.51
2023-08-31T08:02:40.458Z,56.93
2023-08-31T08:03:42.673Z,57.34
2023-08-31T08:04:47.157Z,56.49
2023-08-31T08:05:49.567Z,55.85
2023-08-31T08:06:51.921Z,55.95
2023-08-31T08:07:54.093Z,56.20
2023-08-31T08:08:56.201Z,56.37
2023-08-31T08:09:58.450Z,56.25
2023-08-31T08:11:01.101Z,56.05
2023-08-31T08:12:03.420Z,56.68
2023-08-31T08:13:06.082Z,56.36
2023-08-31T08:14:08.261Z,55.67
2023-08-31T08:15:10.616Z,56.24
2023-08-31T08:16:12.875Z,54.81
2023-08-31T08:17:15.121Z,55.59
2023-08-31T08:18:17.265Z,54.22
2023-08-31T08:19:23.935Z,54.07
2023-08-31T08:20:26.204Z,53.81
2023-08-31T08:21:28.397Z,54.10
2023-08-31T08:22:30.559Z,53.85
2023-08-31T08:23:32.884Z,54.90
2023-08-31T08:24:35.008Z,54.81
2023-08-31T08:25:37.138Z,54.84
2023-08-31T08:26:39.298Z,54.48
2023-08-31T08:27:41.424Z,53.60
2023-08-31T08:28:43.559Z,54.54
2023-08-31T08:29:48.468Z,54.38
2023-08-31T08:30:51.331Z,54.42
2023-08-31T08:31:53.513Z,54.54
2023-08-31T08:32:55.734Z,54.93
2023-08-31T08:33:57.995Z,54.97
2023-08-31T08:35:00.240Z,54.21
2023-08-31T08:36:02.464Z,54.43
2023-08-31T08:37:04.978Z,53.33
2023-08-31T08:38:07.218Z,53.37
2023-08-31T08:39:09.354Z,52.94
2023-08-31T08:40:11.645Z,52.80
2023-08-31T08:41:15.085Z,51.95
2023-08-31T08:42:19.111Z,52.07
2023-08-31T08:43:26.130Z,51.78
2023-08-31T08:44:33.021Z,51.06
2023-08-31T08:45:40.925Z,51.62
2023-08-31T08:46:43.589Z,51.23
2023-08-31T08:47:46.314Z,50.66
2023-08-31T08:48:48.549Z,49.09
2023-08-31T08:49:51.055Z,48.59
2023-08-31T08:50:54.599Z,47.91
2023-08-31T08:51:56.844Z,47.37
2023-08-31T08:52:59.413Z,47.01
2023-08-31T08:54:01.848Z,45.50
2023-08-31T08:55:04.598Z,46.01
2023-08-31T08:56:06.761Z,46.81
2023-08-31T08:57:08.916Z,46.35
2023-08-31T08:58:11.268Z,48.01
2023-08-31T08:59:14.621Z,47.84
2023-08-31T09:00:17.224Z,47.76
2023-08-31T09:01:23.822Z,47.92
2023-08-31T09:02:26.043Z,49.41
2023-08-31T09:03:28.256Z,48.40
2023-08-31T09:04:31.982Z,47.93
2023-08-31T09:05:34.444Z,48.74
2023-08-31T09:06:38.107Z,48.15
2023-08-31T09:08:10.536Z,45.59
2023-08-31T09:09:12.761Z,44.70
2023-08-31T09:10:14.887Z,43.86
2023-08-31T09:11:23.633Z,43.72
2023-08-31T09:12:26.015Z,44.02
2023-08-31T09:13:32.230Z,43.05
2023-08-31T09:14:34.368Z,42.57
2023-08-31T09:15:49.863Z,42.43
2023-08-31T09:16:52.945Z,41.24
2023-08-31T09:17:55.308Z,41.30
2023-08-31T09:18:57.772Z,40.86
2023-08-31T09:20:05.439Z,40.10
2023-08-31T09:21:07.640Z,40.60
2023-08-31T09:22:12.034Z,40.90
2023-08-31T09:23:15.221Z,42.12
2023-08-31T09:24:19.271Z,43.02
2023-08-31T09:25:21.913Z,42.86
2023-08-31T09:26:24.123Z,44.07
2023-08-31T09:27:26.348Z,45.32
2023-08-31T09:28:29.420Z,45.01
2023-08-31T09:29:31.674Z,45.42
2023-08-31T09:30:37.951Z,44.98
2023-08-31T09:31:44.349Z,44.64
2023-08-31T09:32:52.922Z,45.21
2023-08-31T09:33:55.123Z,45.07
2023-08-31T09:35:10.420Z,45.84
2023-08-31T09:36:16.959Z,45.37
2023-08-31T09:37:19.096Z,45.17
2023-08-31T09:38:21.330Z,44.40
2023-08-31T09:39:23.475Z,44.61
2023-08-31T09:40:25.614Z,44.92
2023-08-31T09:41:27.870Z,44.53
2023-08-31T09:42:39.536Z,44.51
2023-08-31T09:43:42.874Z,44.35
2023-08-31T09:44:45.946Z,43.50
2023-08-31T09:45:48.539Z,43.27
2023-08-31T09:46:50.785Z,41.94
2023-08-31T09:47:53.199Z,41.59
2023-08-31T09:48:55.823Z,41.37
2023-08-31T09:49:58.981Z,40.34
2023-08-31T09:51:03.446Z,40.98
2023-08-31T09:52:07.657Z,41.44
2023-08-31T09:53:11.978Z,42.52
2023-08-31T09:54:16.801Z,42.88
2023-08-31T09:55:20.233Z,40.57
2023-08-31T09:56:23.461Z,40.89
2023-08-31T09:57:36.120Z,40.87
2023-08-31T09:58:42.453Z,40.46
2023-08-31T09:59:44.711Z,38.64
2023-08-31T10:00:47.642Z,39.01
2023-08-31T10:01:50.006Z,37.60
2023-08-31T10:02:52.335Z,37.44
2023-08-31T10:03:54.644Z,38.10
2023-08-31T10:04:57.838Z,37.90
2023-08-31T10:06:00.211Z,37.55
2023-08-31T10:07:02.374Z,38.12
2023-08-31T10:08:04.961Z,38.63
2023-08-31T10:09:07.576Z,38.81
2023-08-31T10:10:09.896Z,39.37
2023-08-31T10:11:14.724Z,40.04
2023-08-31T10:12:18.245Z,40.54
2023-08-31T10:13:21.117Z,41.07
2023-08-31T10:14:23.638Z,41.35
2023-08-31T10:15:27.844Z,40.99
2023-08-31T10:16:30.011Z,41.01
2023-08-31T10:17:32.480Z,40.17
2023-08-31T10:18:37.909Z,39.62
2023-08-31T10:19:40.321Z,37.85
2023-08-31T10:20:46.640Z,36.95
2023-08-31T10:21:48.902Z,37.32
2023-08-31T10:22:51.032Z,37.35
2023-08-31T10:23:53.445Z,36.94
2023-08-31T10:24:59.828Z,37.06
2023-08-31T10:26:03.030Z,38.83
2023-08-31T10:27:20.638Z,38.45
2023-08-31T10:28:24.189Z,39.96
2023-08-31T10:29:28.888Z,40.49
2023-08-31T10:30:33.593Z,41.07
2023-08-31T10:31:36.063Z,41.38
2023-08-31T10:32:38.237Z,41.59
2023-08-31T10:33:46.176Z,42.27
2023-08-31T10:35:08.086Z,43.46
2023-08-31T10:36:17.872Z,43.84
2023-08-31T10:37:23.582Z,43.82
2023-08-31T10:38:33.004Z,44.55
2023-08-31T10:39:41.251Z,45.21
2023-08-31T10:40:43.542Z,44.95
2023-08-31T10:41:56.417Z,43.52
2023-08-31T10:43:16.636Z,44.61
2023-08-31T10:44:20.829Z,45.97
2023-08-31T10:45:22.954Z,45.28
2023-08-31T10:46:40.020Z,45.55
2023-08-31T10:47:45.431Z,45.50
2023-08-31T10:49:09.992Z,45.36
2023-08-31T10:50:20.742Z,44.88
2023-08-31T10:51:23.574Z,44.60
2023-08-31T10:52:41.743Z,43.42
2023-08-31T10:53:44.340Z,44.77
2023-08-31T10:54:47.811Z,44.07
2023-08-31T10:55:53.890Z,44.72
2023-08-31T10:57:08.919Z,44.14
2023-08-31T10:58:11.584Z,42.54
2023-08-31T10:59:13.764Z,43.54
2023-08-31T11:00:54.248Z,44.52
2023-08-31T11:01:58.486Z,44.70
2023-08-31T11:03:05.705Z,45.51
2023-08-31T11:04:12.070Z,46.30
2023-08-31T11:05:15.899Z,43.68
2023-08-31T11:06:19.975Z,43.42
2023-08-31T11:07:25.695Z,43.83
2023-08-31T11:08:27.832Z,44.41
2023-08-31T11:09:30.627Z,44.97
2023-08-31T11:10:32.848Z,45.49
2023-08-31T11:11:40.990Z,45.66
2023-08-31T11:12:49.265Z,46.06
2023-08-31T11:13:58.099Z,45.57
2023-08-31T11:15:00.316Z,45.53
2023-08-31T11:16:02.559Z,46.43
2023-08-31T11:17:07.582Z,46.48
2023-08-31T11:18:10.299Z,46.18
2023-08-31T11:19:12.529Z,45.88
2023-08-31T11:20:17.957Z,45.64
2023-08-31T11:21:20.972Z,46.41
2023-08-31T11:22:23.198Z,45.58
2023-08-31T11:23:26.387Z,45.56
2023-08-31T11:24:28.703Z,45.12
2023-08-31T11:25:33.929Z,43.74
2023-08-31T11:26:36.160Z,43.27
2023-08-31T11:27:38.550Z,43.08
2023-08-31T11:28:40.703Z,41.74
2023-08-31T11:29:46.337Z,41.34
2023-08-31T11:30:49.649Z,40.87
2023-08-31T11:31:51.984Z,39.71
2023-08-31T11:32:54.796Z,39.20
2023-08-31T11:33:57.279Z,40.01
2023-08-31T11:34:59.579Z,40.34
2023-08-31T11:36:01.699Z,41.01
2023-08-31T11:37:04.018Z,40.23
2023-08-31T11:38:07.070Z,40.74
2023-08-31T11:39:11.375Z,39.70
2023-08-31T11:40:15.810Z,39.01
2023-08-31T11:41:18.194Z,39.37
2023-08-31T11:42:21.927Z,38.28
2023-08-31T11:43:24.744Z,38.82
2023-08-31T11:44:27.117Z,39.01
2023-08-31T11:45:29.777Z,38.88
2023-08-31T11:46:32.345Z,39.30
2023-08-31T11:47:34.926Z,40.07
2023-08-31T11:48:37.129Z,40.39
2023-08-31T11:49:40.958Z,39.63
2023-08-31T11:50:43.471Z,40.59
2023-08-31T11:51:45.973Z,41.08
2023-08-31T11:52:48.264Z,41.60
2023-08-31T11:53:50.935Z,41.75
2023-08-31T11:54:54.138Z,40.23
2023-08-31T11:55:56.411Z,39.91
2023-08-31T11:56:58.580Z,39.85
2023-08-31T11:58:00.750Z,41.14
2023-08-31T11:59:05.268Z,40.23
2023-08-31T12:00:08.051Z,40.28
2023-08-31T12:01:10.230Z,40.82
2023-08-31T12:02:12.403Z,40.10
2023-08-31T12:03:14.815Z,40.22
2023-08-31T12:04:29.546Z,40.38
2023-08-31T12:05:48.699Z,40.92
2023-08-31T12:06:52.320Z,41.13
2023-08-31T12:07:57.776Z,41.59
2023-08-31T12:08:59.968Z,42.50
2023-08-31T12:10:05.254Z,41.56
2023-08-31T12:11:08.115Z,41.52
2023-08-31T12:12:10.293Z,41.94
2023-08-31T12:13:14.327Z,40.66
2023-08-31T12:14:21.448Z,40.31
2023-08-31T12:15:24.448Z,39.91
2023-08-31T12:16:33.288Z,38.69
2023-08-31T12:17:40.701Z,38.46
2023-08-31T12:18:42.863Z,36.30
2023-08-31T12:19:45.202Z,34.96
2023-08-31T12:20:56.188Z,32.72
2023-08-31T12:21:58.935Z,33.85
2023-08-31T12:23:01.274Z,32.47
2023-08-31T12:24:04.873Z,32.97
2023-08-31T12:25:07.503Z,31.02
2023-08-31T12:26:09.905Z,31.67
2023-08-31T12:27:12.337Z,31.36
2023-08-31T12:28:14.668Z,31.20
2023-08-31T12:29:17.058Z,31.59
2023-08-31T12:30:19.296Z,31.47
2023-08-31T12:31:22.707Z,31.45
2023-08-31T12:32:24.889Z,32.46
2023-08-31T12:33:27.063Z,33.48
2023-08-31T12:34:30.232Z,34.49
2023-08-31T12:35:32.382Z,34.13
2023-08-31T12:36:34.631Z,34.29
2023-08-31T12:37:36.764Z,34.33
2023-08-31T12:38:38.936Z,34.35
2023-08-31T12:39:43.405Z,33.90
2023-08-31T12:40:45.619Z,33.08
2023-08-31T12:41:48.124Z,32.41
2023-08-31T12:42:50.236Z,32.07
2023-08-31T12:43:52.372Z,30.53
2023-08-31T12:44:54.585Z,30.00
2023-08-31T12:45:57.289Z,30.28
2023-08-31T12:46:59.572Z,30.56
2023-08-31T12:48:01.742Z,29.80
2023-08-31T12:49:04.918Z,29.63
2023-08-31T12:50:07.937Z,30.58
2023-08-31T12:51:10.094Z,30.33
2023-08-31T12:52:12.235Z,30.77
2023-08-31T12:53:14.621Z,30.76
2023-08-31T12:54:16.978Z,30.52
2023-08-31T12:55:19.164Z,29.77
2023-08-31T12:56:24.494Z,30.10
2023-08-31T12:57:26.599Z,29.89
2023-08-31T12:58:28.880Z,30.85
2023-08-31T12:59:31.021Z,30.35
2023-08-31T13:00:33.278Z,29.80
2023-08-31T13:01:35.457Z,28.57
2023-08-31T13:02:37.671Z,27.25
2023-08-31T13:03:39.991Z,28.23
2023-08-31T13:04:42.308Z,28.35
2023-08-31T13:05:44.546Z,29.72
2023-08-31T13:06:46.718Z,29.57
2023-08-31T13:07:48.986Z,29.85
2023-08-31T13:08:51.680Z,30.29
2023-08-31T13:09:53.854Z,29.30
2023-08-31T13:10:56.098Z,32.05
2023-08-31T13:11:58.248Z,32.89
2023-08-31T13:13:00.369Z,33.97
2023-08-31T13:14:02.493Z,35.12
2023-08-31T13:15:05.059Z,35.43
2023-08-31T13:16:07.280Z,35.39
2023-08-31T13:17:09.451Z,33.79
2023-08-31T13:18:11.977Z,34.15
2023-08-31T13:19:14.690Z,33.48
2023-08-31T13:20:16.864Z,34.05
2023-08-31T13:21:19.031Z,34.58
2023-08-31T13:22:22.001Z,35.44
2023-08-31T13:23:24.567Z,35.57
2023-08-31T13:24:26.769Z,35.73
2023-08-31T13:25:28.917Z,36.45
2023-08-31T13:26:31.016Z,35.52
2023-08-31T13:27:34.359Z,36.35
2023-08-31T13:28:36.529Z,36.92
2023-08-31T13:29:38.666Z,37.08
2023-08-31T13:30:41.159Z,37.33
2023-08-31T13:31:43.503Z,37.28
2023-08-31T13:32:45.697Z,35.23
2023-08-31T13:33:48.245Z,34.35
2023-08-31T13:34:50.371Z,32.98
2023-08-31T13:35:52.644Z,32.23
2023-08-31T13:36:55.124Z,30.36
2023-08-31T13:37:57.612Z,29.77
2023-08-31T13:38:59.749Z,29.57
2023-08-31T13:40:02.256Z,28.66
2023-08-31T13:41:04.831Z,28.50